CheckWX is a tool to help pilots better visualize weather data.  It is not intended as a substitute for an official pre-flight weather briefing.

04:16:31 UTC

KLAL METAR
Lakeland Linder Regional Airport
Lakeland, Florida, USA
Current

42 mins ago

KLAL 270335Z AUTO 13007KT 10SM CLR 26/20 A3012 RMK AO2 PNO
Observed
May-27 @ 03:35 UTC
Wind
  • 130° at 7 KTS
Visibility
10 SM
Flight Rules
VFR
Cloud Levels
  • Clear skies
Temperature
26°C / 79°F
Dewpoint
20°C / 68°F
Humidity
70%
Altimeter
30.12" Hg
Pressure
1020.02 hPa
Previous

2 hours ago

KLAL 270235Z AUTO 13007KT 10SM CLR 27/20 A3011 RMK AO2 PNO
Observed
May-27 @ 02:35 UTC
Wind
  • 130° at 7 KTS
Visibility
10 SM
Flight Rules
VFR
Cloud Levels
  • Clear skies
Temperature
27°C / 81°F
Dewpoint
20°C / 68°F
Heat Index
29°C / 84°F
Humidity
66%
Altimeter
30.11" Hg
Pressure
1019.62 hPa
Previous

3 hours ago

KLAL 270050Z 10005KT 10SM SKC 29/19 A3008
Observed
May-27 @ 00:50 UTC
Wind
  • 100° at 5 KTS
Visibility
10 SM
Flight Rules
VFR
Cloud Levels
  • Clear skies
Temperature
29°C / 84°F
Dewpoint
19°C / 66°F
Heat Index
30°C / 86°F
Humidity
55%
Altimeter
30.08" Hg
Pressure
1018.62 hPa